createdAt,value
2017-06-01T00:00:34.256Z,71.55
2017-06-01T00:01:30.651Z,71.54
2017-06-01T00:02:26.950Z,71.59
2017-06-01T00:03:23.381Z,71.63
2017-06-01T00:04:19.805Z,71.62
2017-06-01T00:05:16.103Z,71.70
2017-06-01T00:06:12.411Z,71.68
2017-06-01T00:07:08.742Z,71.64
2017-06-01T00:08:05.088Z,71.67
2017-06-01T00:09:01.397Z,71.58
2017-06-01T00:09:57.777Z,71.53
2017-06-01T00:10:54.104Z,71.52
2017-06-01T00:11:50.435Z,71.49
2017-06-01T00:12:46.810Z,71.50
2017-06-01T00:13:43.220Z,71.49
2017-06-01T00:14:39.678Z,71.49
2017-06-01T00:15:36.091Z,71.58
2017-06-01T00:16:32.442Z,71.56
2017-06-01T00:17:28.775Z,71.53
2017-06-01T00:18:25.149Z,71.56
2017-06-01T00:19:21.690Z,71.53
2017-06-01T00:20:18.131Z,71.53
2017-06-01T00:21:14.482Z,71.53
2017-06-01T00:22:10.909Z,71.50
2017-06-01T00:23:07.319Z,71.53
2017-06-01T00:24:03.795Z,71.58
2017-06-01T00:25:00.307Z,71.58
2017-06-01T00:25:56.788Z,71.54
2017-06-01T00:26:53.387Z,71.50
2017-06-01T00:27:49.891Z,71.54
2017-06-01T00:28:46.325Z,71.61
2017-06-01T00:29:42.891Z,71.59
2017-06-01T00:30:39.444Z,71.51
2017-06-01T00:31:35.839Z,71.50
2017-06-01T00:32:32.271Z,71.46
2017-06-01T00:33:28.647Z,71.45
2017-06-01T00:34:25.071Z,71.43
2017-06-01T00:35:21.551Z,71.39
2017-06-01T00:36:17.925Z,71.35
2017-06-01T00:37:14.316Z,71.29
2017-06-01T00:38:10.762Z,71.30
2017-06-01T00:39:07.083Z,71.24
2017-06-01T00:40:03.535Z,71.19
2017-06-01T00:40:59.987Z,71.13
2017-06-01T00:41:56.351Z,71.10
2017-06-01T00:42:52.695Z,71.12
2017-06-01T00:43:49.039Z,71.12
2017-06-01T00:44:45.359Z,71.15
2017-06-01T00:45:41.793Z,71.12
2017-06-01T00:46:38.361Z,71.12
2017-06-01T00:47:34.852Z,71.10
2017-06-01T00:48:31.320Z,71.17
2017-06-01T00:49:27.836Z,71.18
2017-06-01T00:50:24.320Z,71.19
2017-06-01T00:51:20.778Z,71.24
2017-06-01T00:52:17.308Z,71.36
2017-06-01T00:53:13.719Z,71.38
2017-06-01T00:54:10.212Z,71.45
2017-06-01T00:55:06.599Z,71.44
2017-06-01T00:56:02.927Z,71.55
2017-06-01T00:56:59.324Z,71.55
2017-06-01T00:57:55.795Z,71.55
2017-06-01T00:58:52.176Z,71.55
2017-06-01T00:59:48.583Z,71.64
2017-06-01T01:00:44.999Z,71.64
2017-06-01T01:01:41.948Z,71.79
2017-06-01T01:02:38.275Z,71.79
2017-06-01T01:03:35.595Z,71.72
2017-06-01T01:04:31.895Z,71.80
2017-06-01T01:05:28.289Z,71.79
2017-06-01T01:06:24.640Z,71.80
2017-06-01T01:07:21.075Z,71.79
2017-06-01T01:08:17.419Z,71.91
2017-06-01T01:09:13.785Z,71.83
2017-06-01T01:10:10.161Z,71.85
2017-06-01T01:11:06.558Z,71.90
2017-06-01T01:12:02.991Z,71.99
2017-06-01T01:12:59.317Z,71.96
2017-06-01T01:13:55.735Z,71.98
2017-06-01T01:14:52.124Z,72.05
2017-06-01T01:15:48.484Z,72.00
2017-06-01T01:16:44.899Z,72.09
2017-06-01T01:17:41.413Z,72.20
2017-06-01T01:18:37.811Z,72.19
2017-06-01T01:19:34.171Z,72.22
2017-06-01T01:20:30.613Z,72.23
2017-06-01T01:21:27.098Z,72.27
2017-06-01T01:22:23.772Z,72.30
2017-06-01T01:23:20.319Z,72.31
2017-06-01T01:24:16.717Z,72.33
2017-06-01T01:25:13.188Z,72.37
2017-06-01T01:26:09.580Z,72.50
2017-06-01T01:27:06.503Z,72.59
2017-06-01T01:28:02.940Z,72.64
2017-06-01T01:28:59.323Z,72.72
2017-06-01T01:29:55.735Z,72.76
2017-06-01T01:30:52.347Z,72.81
2017-06-01T01:31:49.081Z,72.88
2017-06-01T01:32:45.595Z,72.89
2017-06-01T01:33:42.099Z,72.87
2017-06-01T01:34:38.511Z,72.89
2017-06-01T01:35:35.023Z,72.88
2017-06-01T01:36:31.549Z,72.96
2017-06-01T01:37:28.048Z,72.96
2017-06-01T01:38:24.571Z,73.02
2017-06-01T01:39:21.004Z,73.11
2017-06-01T01:40:17.412Z,73.12
2017-06-01T01:41:13.809Z,73.16
2017-06-01T01:42:10.184Z,73.19
2017-06-01T01:43:06.825Z,73.26
2017-06-01T01:44:03.303Z,73.26
2017-06-01T01:44:59.627Z,73.32
2017-06-01T01:45:55.984Z,73.33
2017-06-01T01:46:52.295Z,73.47
2017-06-01T01:47:48.695Z,73.45
2017-06-01T01:48:45.056Z,73.43
2017-06-01T01:49:41.384Z,73.59
2017-06-01T01:50:37.671Z,73.68
2017-06-01T01:51:34.019Z,73.65
2017-06-01T01:52:30.504Z,73.73
2017-06-01T01:53:26.824Z,73.74
2017-06-01T01:54:23.232Z,73.75
2017-06-01T01:55:19.592Z,73.69
2017-06-01T01:56:15.907Z,73.69
2017-06-01T01:57:12.271Z,73.65
2017-06-01T01:58:08.722Z,73.65
2017-06-01T01:59:05.320Z,73.68
2017-06-01T02:00:01.787Z,73.74
2017-06-01T02:00:58.223Z,73.79
2017-06-01T02:01:54.632Z,73.83
2017-06-01T02:02:51.055Z,73.90
2017-06-01T02:03:47.383Z,73.98
2017-06-01T02:04:43.817Z,74.12
2017-06-01T02:05:40.292Z,74.18
2017-06-01T02:06:36.638Z,74.21
2017-06-01T02:07:32.972Z,74.33
2017-06-01T02:08:29.313Z,74.37
2017-06-01T02:09:26.519Z,74.47
2017-06-01T02:10:22.939Z,74.50
2017-06-01T02:11:19.259Z,74.58
2017-06-01T02:12:15.670Z,74.67
2017-06-01T02:13:12.067Z,74.72
2017-06-01T02:14:08.604Z,74.85
2017-06-01T02:15:06.172Z,74.95
2017-06-01T02:16:02.599Z,75.03
2017-06-01T02:16:59.169Z,75.20
2017-06-01T02:17:55.639Z,75.20
2017-06-01T02:18:52.071Z,75.34
2017-06-01T02:19:48.429Z,75.44
2017-06-01T02:20:44.803Z,75.52
2017-06-01T02:21:41.184Z,75.55
2017-06-01T02:22:37.571Z,75.70
2017-06-01T02:23:33.943Z,75.79
2017-06-01T02:24:30.596Z,75.92
2017-06-01T02:25:27.796Z,75.93
2017-06-01T02:26:24.155Z,75.99
2017-06-01T02:27:20.463Z,76.18
2017-06-01T02:28:16.872Z,76.28
2017-06-01T02:29:13.263Z,76.29
2017-06-01T02:30:09.648Z,76.36
2017-06-01T02:31:06.024Z,76.51
2017-06-01T02:32:02.360Z,76.51
2017-06-01T02:32:58.740Z,76.54
2017-06-01T02:33:55.136Z,76.65
2017-06-01T02:34:51.451Z,76.69
2017-06-01T02:35:47.796Z,76.73
2017-06-01T02:36:44.160Z,76.74
2017-06-01T02:37:40.635Z,76.86
2017-06-01T02:38:37.119Z,76.88
2017-06-01T02:39:33.525Z,76.96
2017-06-01T02:40:29.949Z,76.97
2017-06-01T02:41:26.327Z,76.97
2017-06-01T02:42:23.572Z,77.02
2017-06-01T02:43:20.807Z,77.04
2017-06-01T02:44:17.160Z,77.05
2017-06-01T02:45:13.512Z,77.11
2017-06-01T02:46:10.740Z,77.15
2017-06-01T02:47:07.820Z,77.23
2017-06-01T02:48:04.255Z,77.23
2017-06-01T02:49:00.663Z,77.24
2017-06-01T02:49:57.083Z,77.31
2017-06-01T02:50:53.484Z,77.34
2017-06-01T02:51:50.132Z,77.34
2017-06-01T02:52:46.542Z,77.42
2017-06-01T02:53:42.907Z,77.42
2017-06-01T02:54:39.406Z,77.42
2017-06-01T02:55:35.741Z,77.43
2017-06-01T02:56:32.176Z,77.45
2017-06-01T02:57:28.675Z,77.47
2017-06-01T02:58:25.879Z,77.49
2017-06-01T02:59:22.231Z,77.49
2017-06-01T03:00:18.658Z,77.52
2017-06-01T03:01:15.213Z,77.55
2017-06-01T03:02:11.760Z,77.60
2017-06-01T03:03:08.281Z,77.66
2017-06-01T03:04:04.808Z,77.64
2017-06-01T03:05:01.235Z,77.69
2017-06-01T03:05:57.587Z,77.71
2017-06-01T03:06:53.929Z,77.71
2017-06-01T03:07:50.299Z,77.74
2017-06-01T03:08:47.592Z,77.78
2017-06-01T03:09:44.041Z,77.80
2017-06-01T03:10:40.587Z,77.87
2017-06-01T03:11:37.010Z,77.94
2017-06-01T03:12:33.535Z,77.98
2017-06-01T03:13:29.988Z,77.99
2017-06-01T03:14:26.401Z,78.09
2017-06-01T03:15:22.817Z,78.12
2017-06-01T03:16:19.347Z,78.16
2017-06-01T03:17:15.764Z,78.21
2017-06-01T03:18:12.423Z,78.25
2017-06-01T03:19:08.842Z,78.31
2017-06-01T03:20:05.336Z,78.38
2017-06-01T03:21:01.893Z,78.44
2017-06-01T03:21:58.347Z,78.50
2017-06-01T03:22:54.868Z,78.52
2017-06-01T03:23:51.314Z,78.57
2017-06-01T03:24:47.692Z,78.59
2017-06-01T03:25:44.163Z,78.75
2017-06-01T03:26:40.531Z,78.79
2017-06-01T03:27:36.907Z,78.85
2017-06-01T03:28:33.371Z,78.92
2017-06-01T03:29:29.924Z,78.97
2017-06-01T03:30:26.448Z,78.99
2017-06-01T03:31:22.843Z,79.01
2017-06-01T03:32:19.212Z,79.07
2017-06-01T03:33:15.580Z,79.09
2017-06-01T03:34:12.036Z,79.12
2017-06-01T03:35:09.256Z,79.17
2017-06-01T03:36:05.888Z,79.22
2017-06-01T03:37:02.316Z,79.25
2017-06-01T03:37:58.708Z,79.26
2017-06-01T03:38:55.061Z,79.29
2017-06-01T03:39:51.431Z,79.34
2017-06-01T03:40:47.785Z,79.35
2017-06-01T03:41:44.216Z,79.43
2017-06-01T03:42:40.591Z,79.41
2017-06-01T03:43:36.974Z,79.48
2017-06-01T03:44:33.380Z,79.48
2017-06-01T03:45:29.789Z,79.48
2017-06-01T03:46:26.408Z,79.55
2017-06-01T03:47:22.799Z,79.56
2017-06-01T03:48:19.171Z,79.58
2017-06-01T03:49:15.644Z,79.59
2017-06-01T03:50:12.008Z,79.62
2017-06-01T03:51:08.472Z,79.60
2017-06-01T03:52:04.896Z,79.59
2017-06-01T03:53:01.299Z,79.61
2017-06-01T03:53:57.727Z,79.62
2017-06-01T03:54:57.216Z,79.67
2017-06-01T03:55:53.579Z,79.69
2017-06-01T03:56:49.948Z,79.71
2017-06-01T03:57:46.533Z,79.74
2017-06-01T03:58:43.088Z,79.80
2017-06-01T03:59:39.583Z,79.80
2017-06-01T04:00:36.166Z,79.82
2017-06-01T04:01:32.539Z,79.83
2017-06-01T04:02:28.979Z,79.86
2017-06-01T04:03:25.605Z,79.89
2017-06-01T04:04:21.956Z,79.93
2017-06-01T04:05:19.144Z,79.96
2017-06-01T04:06:15.579Z,79.98
2017-06-01T04:07:11.892Z,80.00
2017-06-01T04:08:08.355Z,80.00
2017-06-01T04:09:04.755Z,80.07
2017-06-01T04:10:01.152Z,80.18
2017-06-01T04:10:57.599Z,80.22
2017-06-01T04:11:54.012Z,80.23
2017-06-01T04:12:51.305Z,80.23
2017-06-01T04:13:47.798Z,80.23
2017-06-01T04:14:44.459Z,80.21
2017-06-01T04:15:41.044Z,80.25
2017-06-01T04:16:37.680Z,80.26
2017-06-01T04:17:34.173Z,80.25
2017-06-01T04:18:30.777Z,80.25
2017-06-01T04:19:27.260Z,80.24
2017-06-01T04:20:24.056Z,80.25
2017-06-01T04:21:20.760Z,80.29
2017-06-01T04:22:17.244Z,80.38
2017-06-01T04:23:13.981Z,80.39
2017-06-01T04:24:10.564Z,80.39
2017-06-01T04:25:08.013Z,80.42
2017-06-01T04:26:05.356Z,80.39
2017-06-01T04:27:01.932Z,80.36
2017-06-01T04:27:58.387Z,80.39
2017-06-01T04:28:55.776Z,80.39
2017-06-01T04:29:52.167Z,80.39
2017-06-01T04:30:48.467Z,80.40
2017-06-01T04:31:45.579Z,80.47
2017-06-01T04:32:42.083Z,80.45
2017-06-01T04:33:38.483Z,80.55
2017-06-01T04:34:34.948Z,80.60
2017-06-01T04:35:31.555Z,80.61
2017-06-01T04:36:29.112Z,80.62
2017-06-01T04:37:25.712Z,80.62
2017-06-01T04:38:22.133Z,80.62
2017-06-01T04:39:18.539Z,80.58
2017-06-01T04:40:15.062Z,80.57
2017-06-01T04:41:11.435Z,80.64
2017-06-01T04:42:07.839Z,80.58
2017-06-01T04:43:04.276Z,80.54
2017-06-01T04:44:00.783Z,80.47
2017-06-01T04:44:57.236Z,80.48
2017-06-01T04:45:53.612Z,80.50
2017-06-01T04:46:50.871Z,80.48
2017-06-01T04:47:47.276Z,80.43
2017-06-01T04:48:43.643Z,80.38
2017-06-01T04:49:40.080Z,80.33
2017-06-01T04:50:36.425Z,80.29
2017-06-01T04:51:32.779Z,80.30
2017-06-01T04:52:29.239Z,80.25
2017-06-01T04:53:25.678Z,80.22
2017-06-01T04:54:22.151Z,80.16
2017-06-01T04:55:18.639Z,80.07
2017-06-01T04:56:15.084Z,79.94
2017-06-01T04:57:11.489Z,79.84
2017-06-01T04:58:08.430Z,79.73
2017-06-01T04:59:05.191Z,79.61
2017-06-01T05:00:01.604Z,79.49
2017-06-01T05:00:57.951Z,79.40
2017-06-01T05:01:54.337Z,79.29
2017-06-01T05:02:50.739Z,79.18
2017-06-01T05:03:47.073Z,79.03
2017-06-01T05:04:43.423Z,78.89
2017-06-01T05:05:39.860Z,78.75
2017-06-01T05:06:36.159Z,78.66
2017-06-01T05:07:32.623Z,78.58
2017-06-01T05:08:28.900Z,78.47
2017-06-01T05:09:25.179Z,78.37
2017-06-01T05:10:21.704Z,78.25
2017-06-01T05:11:18.148Z,78.11
2017-06-01T05:12:14.775Z,78.06
2017-06-01T05:13:11.214Z,77.97
2017-06-01T05:14:07.736Z,77.90
2017-06-01T05:15:04.181Z,77.80
2017-06-01T05:16:00.599Z,77.71
2017-06-01T05:16:57.096Z,77.59
2017-06-01T05:17:53.703Z,77.45
2017-06-01T05:18:50.300Z,77.31
2017-06-01T05:19:47.056Z,77.21
2017-06-01T05:20:43.516Z,77.10
2017-06-01T05:21:40.041Z,77.02
2017-06-01T05:22:36.504Z,76.95
2017-06-01T05:23:32.943Z,76.87
2017-06-01T05:24:29.335Z,76.78
2017-06-01T05:25:25.734Z,76.69
2017-06-01T05:26:22.055Z,76.62
2017-06-01T05:27:18.360Z,76.52
2017-06-01T05:28:14.722Z,76.47
2017-06-01T05:29:11.040Z,76.46
2017-06-01T05:30:07.455Z,76.38
2017-06-01T05:31:03.787Z,76.33
2017-06-01T05:32:00.103Z,76.27
2017-06-01T05:32:57.447Z,76.23
2017-06-01T05:33:53.747Z,76.24
2017-06-01T05:34:50.155Z,76.23
2017-06-01T05:35:46.667Z,76.20
2017-06-01T05:36:43.038Z,76.21
2017-06-01T05:37:39.356Z,76.23
2017-06-01T05:38:36.611Z,76.16
2017-06-01T05:39:32.974Z,76.03
2017-06-01T05:40:29.323Z,75.96
2017-06-01T05:41:25.639Z,75.85
2017-06-01T05:42:21.910Z,75.74
2017-06-01T05:43:18.204Z,75.62
2017-06-01T05:44:14.543Z,75.45
2017-06-01T05:45:10.895Z,75.38
2017-06-01T05:46:07.240Z,75.28
2017-06-01T05:47:03.819Z,75.25
2017-06-01T05:48:00.246Z,75.21
2017-06-01T05:48:56.675Z,75.21
2017-06-01T05:49:53.075Z,75.12
2017-06-01T05:50:49.448Z,75.03
2017-06-01T05:51:45.823Z,74.99
2017-06-01T05:52:42.167Z,74.91
2017-06-01T05:53:38.504Z,74.85
2017-06-01T05:54:34.824Z,74.81
2017-06-01T05:55:31.116Z,74.77
2017-06-01T05:56:27.465Z,74.74
2017-06-01T05:57:23.795Z,74.69
2017-06-01T05:58:20.096Z,74.66
2017-06-01T05:59:16.407Z,74.67
2017-06-01T06:00:12.699Z,74.65
2017-06-01T06:01:08.981Z,74.61
2017-06-01T06:02:05.281Z,74.53
2017-06-01T06:03:01.578Z,74.45
2017-06-01T06:03:57.872Z,74.41
2017-06-01T06:04:54.187Z,74.33
2017-06-01T06:05:50.516Z,74.40
2017-06-01T06:06:46.827Z,74.39
2017-06-01T06:07:43.125Z,74.31
2017-06-01T06:08:39.499Z,74.25
2017-06-01T06:09:36.766Z,74.22
2017-06-01T06:10:33.043Z,74.18
2017-06-01T06:11:29.487Z,74.16
2017-06-01T06:12:25.775Z,74.12
2017-06-01T06:13:22.042Z,74.07
2017-06-01T06:14:19.336Z,73.99
2017-06-01T06:15:16.558Z,73.91
2017-06-01T06:16:12.915Z,73.88
2017-06-01T06:17:09.255Z,73.86
2017-06-01T06:18:05.595Z,73.87
2017-06-01T06:19:01.873Z,73.89
2017-06-01T06:19:58.199Z,73.92
2017-06-01T06:20:54.515Z,73.90
2017-06-01T06:21:50.919Z,73.84
2017-06-01T06:22:47.263Z,73.81
2017-06-01T06:23:43.668Z,73.80
2017-06-01T06:24:41.051Z,73.81
2017-06-01T06:25:37.436Z,73.78
2017-06-01T06:26:33.803Z,73.75
2017-06-01T06:27:30.132Z,73.72
2017-06-01T06:28:26.427Z,73.64
2017-06-01T06:29:22.722Z,73.46
2017-06-01T06:30:19.988Z,73.31
2017-06-01T06:31:16.252Z,73.20
2017-06-01T06:32:13.363Z,73.13
2017-06-01T06:33:09.668Z,73.09
2017-06-01T06:34:05.963Z,72.99
2017-06-01T06:35:02.226Z,72.85
2017-06-01T06:35:58.562Z,72.84
2017-06-01T06:36:54.946Z,72.83
2017-06-01T06:37:51.235Z,72.80
2017-06-01T06:38:47.554Z,72.79
2017-06-01T06:39:43.835Z,72.86
2017-06-01T06:40:40.123Z,72.84
2017-06-01T06:41:37.256Z,72.84
2017-06-01T06:42:33.531Z,72.88
2017-06-01T06:43:29.790Z,72.92
2017-06-01T06:44:27.807Z,72.84
2017-06-01T06:45:24.283Z,72.79
2017-06-01T06:46:20.583Z,72.75
2017-06-01T06:47:16.844Z,72.72
2017-06-01T06:48:13.112Z,72.59
2017-06-01T06:49:09.387Z,72.54
2017-06-01T06:50:05.819Z,72.46
2017-06-01T06:51:03.059Z,72.41
2017-06-01T06:51:59.351Z,72.41
2017-06-01T06:52:55.627Z,72.34
2017-06-01T06:53:51.975Z,72.22
2017-06-01T06:54:48.239Z,72.12
2017-06-01T06:55:44.499Z,72.06
2017-06-01T06:56:40.775Z,71.99
2017-06-01T06:57:37.999Z,71.90
2017-06-01T06:58:34.275Z,71.80
2017-06-01T06:59:30.535Z,71.73
2017-06-01T07:00:26.808Z,71.74
2017-06-01T07:01:23.063Z,71.71
2017-06-01T07:02:19.396Z,71.67
2017-06-01T07:03:15.654Z,71.57
2017-06-01T07:04:12.067Z,71.41
2017-06-01T07:05:08.339Z,71.32
2017-06-01T07:06:04.610Z,71.27
2017-06-01T07:07:00.907Z,71.23
2017-06-01T07:07:57.179Z,71.12
2017-06-01T07:08:53.515Z,70.93
2017-06-01T07:09:50.531Z,70.95
2017-06-01T07:10:46.787Z,70.95
2017-06-01T07:11:43.107Z,71.00
2017-06-01T07:12:39.367Z,70.96
2017-06-01T07:13:36.424Z,71.00
2017-06-01T07:14:32.695Z,70.99
2017-06-01T07:15:29.016Z,70.99
2017-06-01T07:16:25.288Z,70.93
2017-06-01T07:17:21.544Z,70.90
2017-06-01T07:18:17.841Z,70.78
2017-06-01T07:19:15.320Z,70.56
2017-06-01T07:20:11.590Z,70.46
2017-06-01T07:21:07.852Z,70.38
2017-06-01T07:22:04.139Z,70.17
2017-06-01T07:23:00.398Z,70.00
2017-06-01T07:23:56.675Z,69.84
2017-06-01T07:24:52.995Z,69.69
2017-06-01T07:25:49.263Z,69.49
2017-06-01T07:26:45.539Z,69.35
2017-06-01T07:27:42.619Z,69.30
2017-06-01T07:28:38.980Z,69.19
2017-06-01T07:29:36.243Z,69.31
2017-06-01T07:30:32.545Z,69.28
2017-06-01T07:31:28.810Z,69.29
2017-06-01T07:32:25.092Z,69.20
2017-06-01T07:33:21.360Z,69.13
2017-06-01T07:34:17.643Z,69.01
2017-06-01T07:35:13.892Z,69.04
2017-06-01T07:36:10.234Z,69.03
2017-06-01T07:37:06.503Z,69.05
2017-06-01T07:38:03.528Z,69.10
2017-06-01T07:38:59.837Z,69.04
2017-06-01T07:39:56.114Z,69.06
2017-06-01T07:40:52.371Z,69.19
2017-06-01T07:41:48.793Z,69.23
2017-06-01T07:42:45.064Z,69.27
2017-06-01T07:43:41.310Z,69.20
2017-06-01T07:44:37.590Z,69.20
2017-06-01T07:45:35.147Z,69.22
2017-06-01T07:46:31.411Z,69.23
2017-06-01T07:47:27.743Z,69.16
2017-06-01T07:48:25.452Z,68.97
2017-06-01T07:49:22.471Z,68.72
2017-06-01T07:50:18.751Z,68.54
2017-06-01T07:51:15.043Z,68.52
2017-06-01T07:52:11.363Z,68.24
2017-06-01T07:53:07.619Z,68.28
2017-06-01T07:54:03.888Z,68.09
2017-06-01T07:55:00.183Z,68.21
2017-06-01T07:55:56.442Z,68.23
2017-06-01T07:56:52.735Z,68.30
2017-06-01T07:57:49.024Z,68.40
2017-06-01T07:58:45.271Z,68.34
2017-06-01T07:59:41.538Z,68.21
2017-06-01T08:00:38.683Z,68.08
2017-06-01T08:01:34.960Z,68.09
2017-06-01T08:02:31.219Z,68.10
2017-06-01T08:03:28.374Z,67.99
2017-06-01T08:04:24.643Z,67.84
2017-06-01T08:05:21.043Z,67.74
2017-06-01T08:06:17.315Z,67.63
2017-06-01T08:07:13.639Z,67.52
2017-06-01T08:08:09.971Z,67.63
2017-06-01T08:09:06.231Z,67.56
2017-06-01T08:10:02.500Z,67.48
2017-06-01T08:10:58.783Z,67.33
2017-06-01T08:11:55.043Z,67.21
2017-06-01T08:12:52.243Z,67.08
2017-06-01T08:13:48.486Z,66.87
2017-06-01T08:14:44.803Z,66.75
2017-06-01T08:15:41.108Z,66.54
2017-06-01T08:16:37.374Z,66.59
2017-06-01T08:17:33.622Z,66.58
2017-06-01T08:18:30.695Z,66.56
2017-06-01T08:19:27.934Z,66.55
2017-06-01T08:20:24.164Z,66.35
2017-06-01T08:21:20.439Z,65.99
2017-06-01T08:22:16.736Z,65.93
2017-06-01T08:23:13.058Z,65.70
2017-06-01T08:24:09.317Z,65.77
2017-06-01T08:25:07.404Z,65.79
2017-06-01T08:26:03.702Z,65.77
2017-06-01T08:27:00.032Z,65.71
2017-06-01T08:27:56.255Z,65.51
2017-06-01T08:28:52.545Z,65.34
2017-06-01T08:29:48.819Z,65.07
2017-06-01T08:30:45.092Z,64.70
2017-06-01T08:31:41.383Z,64.53
2017-06-01T08:32:37.657Z,64.28
2017-06-01T08:33:33.952Z,64.11
2017-06-01T08:34:30.199Z,64.02
2017-06-01T08:35:26.455Z,63.89
2017-06-01T08:36:22.730Z,63.96
2017-06-01T08:37:19.003Z,64.06
2017-06-01T08:38:15.251Z,64.33
2017-06-01T08:39:11.516Z,64.39
2017-06-01T08:40:07.799Z,64.43
2017-06-01T08:41:04.066Z,64.37
2017-06-01T08:42:00.355Z,64.04
2017-06-01T08:42:56.610Z,63.65
2017-06-01T08:43:52.862Z,63.46
2017-06-01T08:44:49.136Z,63.51
2017-06-01T08:45:45.424Z,63.64
2017-06-01T08:46:41.687Z,63.58
2017-06-01T08:47:37.943Z,63.00
2017-06-01T08:48:34.199Z,62.97
2017-06-01T08:49:30.471Z,62.64
2017-06-01T08:50:26.731Z,62.46
2017-06-01T08:51:22.978Z,62.13
2017-06-01T08:52:19.218Z,62.13
2017-06-01T08:53:15.562Z,62.16
2017-06-01T08:54:11.811Z,62.19
2017-06-01T08:55:08.084Z,62.15
2017-06-01T08:56:04.328Z,62.14
2017-06-01T08:57:00.595Z,62.25
2017-06-01T08:57:56.848Z,62.45
2017-06-01T08:58:53.086Z,62.74
2017-06-01T08:59:49.335Z,62.87
2017-06-01T09:00:45.594Z,63.02
2017-06-01T09:01:41.836Z,62.83
2017-06-01T09:02:38.090Z,63.27
2017-06-01T09:03:34.345Z,63.11
2017-06-01T09:04:30.588Z,63.42
2017-06-01T09:05:26.867Z,63.18
2017-06-01T09:06:23.108Z,62.97
2017-06-01T09:07:19.343Z,63.17
2017-06-01T09:08:15.587Z,62.30
2017-06-01T09:09:11.852Z,62.41
2017-06-01T09:10:08.107Z,62.54
2017-06-01T09:11:04.367Z,62.30
2017-06-01T09:12:00.623Z,61.63
2017-06-01T09:12:56.863Z,61.82
2017-06-01T09:13:53.109Z,61.32
2017-06-01T09:14:49.343Z,61.46
2017-06-01T09:15:45.596Z,61.83
2017-06-01T09:16:41.851Z,61.77
2017-06-01T09:17:38.103Z,61.57
2017-06-01T09:18:34.353Z,60.68
2017-06-01T09:19:30.591Z,60.28
2017-06-01T09:20:26.844Z,60.25
2017-06-01T09:21:23.104Z,60.23
2017-06-01T09:22:19.343Z,60.36
2017-06-01T09:23:15.603Z,59.94
2017-06-01T09:24:11.848Z,59.49
2017-06-01T09:25:08.099Z,59.07
2017-06-01T09:26:04.342Z,58.81
2017-06-01T09:27:00.611Z,58.03
2017-06-01T09:27:56.850Z,57.04
2017-06-01T09:28:53.100Z,55.97
2017-06-01T09:29:49.335Z,55.66
2017-06-01T09:30:45.583Z,55.37
2017-06-01T09:31:41.847Z,56.04
2017-06-01T09:32:38.090Z,56.36
2017-06-01T09:33:34.386Z,56.32
2017-06-01T09:34:30.635Z,55.66
2017-06-01T09:35:26.875Z,54.84
2017-06-01T09:36:23.123Z,54.51
2017-06-01T09:37:19.391Z,53.74
2017-06-01T09:38:15.635Z,54.08
2017-06-01T09:39:11.875Z,53.55
2017-06-01T09:40:08.132Z,53.50
2017-06-01T09:41:04.398Z,53.91
2017-06-01T09:42:00.635Z,52.97
2017-06-01T09:42:56.894Z,53.53
2017-06-01T09:43:53.155Z,53.26
2017-06-01T09:44:49.402Z,53.26
2017-06-01T09:45:45.658Z,53.26
2017-06-01T09:46:41.898Z,52.80
2017-06-01T09:47:38.139Z,52.74
2017-06-01T09:48:34.398Z,52.88
2017-06-01T09:49:30.642Z,52.45
2017-06-01T09:50:26.890Z,51.49
2017-06-01T09:51:23.135Z,51.41
2017-06-01T09:52:19.384Z,51.11
2017-06-01T09:53:15.648Z,49.78
2017-06-01T09:54:11.896Z,49.75
2017-06-01T09:55:08.135Z,49.00
2017-06-01T09:56:04.403Z,48.58
2017-06-01T09:57:00.646Z,47.52
2017-06-01T09:57:56.895Z,47.55
2017-06-01T09:58:53.159Z,47.95
2017-06-01T09:59:49.411Z,48.16
2017-06-01T10:00:45.663Z,47.87
2017-06-01T10:01:41.911Z,47.67
2017-06-01T10:02:38.160Z,47.45
2017-06-01T10:03:34.484Z,47.58
2017-06-01T10:04:30.742Z,47.63
2017-06-01T10:05:27.011Z,48.07
2017-06-01T10:06:23.263Z,48.28
2017-06-01T10:07:19.503Z,47.99
2017-06-01T10:08:15.747Z,47.81
2017-06-01T10:09:12.007Z,47.58
2017-06-01T10:10:08.239Z,47.97
2017-06-01T10:11:04.484Z,47.71
2017-06-01T10:12:00.735Z,47.65
2017-06-01T10:12:56.983Z,47.18
2017-06-01T10:13:53.234Z,47.25
2017-06-01T10:14:49.495Z,46.79
2017-06-01T10:15:45.749Z,47.08
2017-06-01T10:16:42.023Z,47.25
2017-06-01T10:17:38.275Z,47.54
2017-06-01T10:18:34.531Z,47.77
2017-06-01T10:19:30.816Z,48.15
2017-06-01T10:20:27.074Z,48.32
2017-06-01T10:21:23.372Z,48.45
2017-06-01T10:22:19.612Z,48.22
2017-06-01T10:23:15.846Z,47.92
2017-06-01T10:24:12.119Z,48.27
2017-06-01T10:25:08.382Z,48.10
2017-06-01T10:26:04.643Z,47.96
2017-06-01T10:27:00.899Z,48.01
2017-06-01T10:27:57.176Z,48.03
2017-06-01T10:28:53.424Z,48.14
2017-06-01T10:29:49.701Z,47.88
2017-06-01T10:30:45.977Z,47.79
2017-06-01T10:31:42.215Z,47.99
2017-06-01T10:32:38.480Z,48.16
2017-06-01T10:33:34.730Z,47.98
2017-06-01T10:34:30.971Z,47.53
2017-06-01T10:35:27.259Z,47.20
2017-06-01T10:36:23.510Z,47.54
2017-06-01T10:37:19.765Z,47.21
2017-06-01T10:38:16.011Z,46.81
2017-06-01T10:39:12.272Z,46.41
2017-06-01T10:40:08.511Z,45.75
2017-06-01T10:41:04.775Z,45.75
2017-06-01T10:42:01.023Z,45.69
2017-06-01T10:42:57.263Z,45.92
2017-06-01T10:43:53.507Z,45.69
2017-06-01T10:44:49.769Z,45.40
2017-06-01T10:45:46.036Z,45.04
2017-06-01T10:46:42.311Z,44.37
2017-06-01T10:47:38.555Z,44.39
2017-06-01T10:48:34.790Z,44.68
2017-06-01T10:49:31.067Z,44.85
2017-06-01T10:50:27.314Z,45.08
2017-06-01T10:51:23.551Z,44.17
2017-06-01T10:52:19.830Z,43.64
2017-06-01T10:53:16.067Z,44.72
2017-06-01T10:54:12.302Z,45.60
2017-06-01T10:55:08.554Z,46.01
2017-06-01T10:56:04.812Z,46.37
2017-06-01T10:57:01.087Z,46.35
2017-06-01T10:57:57.355Z,46.27
2017-06-01T10:58:53.599Z,46.27
2017-06-01T10:59:49.848Z,46.23
2017-06-01T11:00:46.094Z,45.93
2017-06-01T11:01:42.356Z,45.19
2017-06-01T11:02:38.627Z,45.02
2017-06-01T11:03:34.870Z,44.65
2017-06-01T11:04:31.115Z,44.11
2017-06-01T11:05:27.360Z,44.09
2017-06-01T11:06:23.606Z,44.47
2017-06-01T11:07:19.847Z,44.43
2017-06-01T11:08:16.132Z,44.84
2017-06-01T11:09:12.401Z,44.47
2017-06-01T11:10:08.654Z,43.19
2017-06-01T11:11:04.899Z,42.62
2017-06-01T11:12:01.155Z,41.45
2017-06-01T11:12:57.411Z,41.61
2017-06-01T11:13:53.671Z,42.50
2017-06-01T11:14:49.911Z,42.29
2017-06-01T11:15:46.200Z,41.91
2017-06-01T11:16:42.470Z,41.88
2017-06-01T11:17:38.823Z,42.07
2017-06-01T11:18:35.122Z,42.12
2017-06-01T11:19:31.419Z,41.31
2017-06-01T11:20:27.654Z,40.78
2017-06-01T11:21:23.899Z,40.94
2017-06-01T11:22:20.139Z,41.19
2017-06-01T11:23:16.403Z,41.12
2017-06-01T11:24:12.660Z,40.96
2017-06-01T11:25:08.928Z,40.71
2017-06-01T11:26:05.185Z,41.00
2017-06-01T11:27:01.491Z,41.30
2017-06-01T11:27:57.739Z,41.06
2017-06-01T11:28:54.011Z,41.35
2017-06-01T11:29:50.254Z,41.27
2017-06-01T11:30:46.503Z,41.00
2017-06-01T11:31:42.761Z,40.93
2017-06-01T11:32:39.015Z,41.01
2017-06-01T11:33:35.258Z,40.75
2017-06-01T11:34:31.519Z,40.68
2017-06-01T11:35:27.755Z,40.27
2017-06-01T11:36:23.999Z,39.79
2017-06-01T11:37:20.240Z,39.01
2017-06-01T11:38:16.486Z,38.87
2017-06-01T11:39:12.735Z,38.97
2017-06-01T11:40:08.986Z,38.55
2017-06-01T11:41:05.218Z,39.13
2017-06-01T11:42:01.488Z,39.35
2017-06-01T11:42:57.739Z,38.92
2017-06-01T11:43:54.004Z,38.19
2017-06-01T11:44:50.294Z,38.33
2017-06-01T11:45:46.549Z,37.76
2017-06-01T11:46:42.787Z,38.86
2017-06-01T11:47:39.026Z,39.27
2017-06-01T11:48:35.290Z,39.22
2017-06-01T11:49:31.535Z,39.05
2017-06-01T11:50:27.799Z,38.22
2017-06-01T11:51:24.050Z,38.20
2017-06-01T11:52:20.295Z,38.32
2017-06-01T11:53:16.540Z,37.83
2017-06-01T11:54:12.779Z,37.80
2017-06-01T11:55:09.022Z,37.76
2017-06-01T11:56:05.295Z,37.75
2017-06-01T11:57:01.551Z,37.71
2017-06-01T11:57:57.803Z,37.14
2017-06-01T11:58:54.070Z,37.30
2017-06-01T11:59:50.324Z,37.31
2017-06-01T12:00:46.604Z,36.52
2017-06-01T12:01:42.851Z,37.12
2017-06-01T12:02:39.091Z,37.53
2017-06-01T12:03:35.338Z,37.64
2017-06-01T12:04:31.618Z,37.66
2017-06-01T12:05:27.855Z,37.58
2017-06-01T12:06:24.132Z,37.49